createdAt,value
2023-12-08T00:04:49.805Z,3.38
2023-12-08T00:10:21.883Z,3.46
2023-12-08T00:15:52.944Z,3.58
2023-12-08T00:21:24.605Z,3.39
2023-12-08T00:26:57.183Z,3.43
2023-12-08T00:32:28.139Z,3.09
2023-12-08T00:37:59.837Z,3.16
2023-12-08T00:43:31.523Z,3.58
2023-12-08T00:49:03.666Z,3.29
2023-12-08T00:54:35.018Z,3.11
2023-12-08T01:00:07.023Z,3.5
2023-12-08T01:05:43.014Z,3.68
2023-12-08T01:11:14.769Z,3.44
2023-12-08T01:16:46.845Z,3.38
2023-12-08T01:22:18.108Z,3.46
2023-12-08T01:27:49.684Z,3.33
2023-12-08T01:33:21.547Z,2.95
2023-12-08T01:38:53.162Z,3.5
2023-12-08T01:44:25.851Z,3.77
2023-12-08T01:49:56.851Z,3.87
2023-12-08T01:55:28.522Z,3.99
2023-12-08T02:01:00.433Z,4.04
2023-12-08T02:06:36.139Z,3.9
2023-12-08T02:12:07.856Z,3.7
2023-12-08T02:17:39.955Z,3.97
2023-12-08T02:23:11.336Z,4.03
2023-12-08T02:28:43.235Z,3.76
2023-12-08T02:34:14.862Z,3.71
2023-12-08T02:39:46.522Z,3.61
2023-12-08T02:45:18.292Z,3.42
2023-12-08T02:50:50.567Z,3.47
2023-12-08T02:56:21.999Z,3.59
2023-12-08T03:01:53.399Z,3.5
2023-12-08T03:07:29.701Z,3.41
2023-12-08T03:13:01.911Z,3.4
2023-12-08T03:18:33.088Z,3.84
2023-12-08T03:24:04.718Z,3.66
2023-12-08T03:29:37.042Z,3.67
2023-12-08T03:35:08.331Z,3.52
2023-12-08T03:40:40.081Z,3.33
2023-12-08T03:46:11.598Z,3.49
2023-12-08T03:51:43.529Z,3.56
2023-12-08T03:57:15.363Z,3.37
2023-12-08T04:02:47.054Z,3.38
2023-12-08T04:08:23.110Z,3.43
2023-12-08T04:13:54.791Z,3.43
2023-12-08T04:19:26.675Z,3.38
2023-12-08T04:24:58.907Z,3.65
2023-12-08T04:30:29.916Z,3.52
2023-12-08T04:36:01.472Z,3.52
2023-12-08T04:41:33.169Z,3.65
2023-12-08T04:47:04.880Z,3.58
2023-12-08T04:52:36.610Z,3.75
2023-12-08T04:58:08.419Z,3.55
2023-12-08T05:03:40.327Z,3.9
2023-12-08T05:09:16.537Z,4.42
2023-12-08T05:14:48.417Z,4.56
2023-12-08T05:20:19.581Z,4.0
2023-12-08T05:25:51.525Z,3.96
2023-12-08T05:31:23.285Z,4.03
2023-12-08T05:36:55.003Z,3.67
2023-12-08T05:42:26.919Z,3.72
2023-12-08T05:47:58.325Z,3.76
2023-12-08T05:53:30.599Z,3.68
2023-12-08T05:59:01.905Z,3.88
2023-12-08T06:04:33.625Z,3.76
2023-12-08T06:10:09.839Z,4.04
2023-12-08T06:15:41.255Z,4.13
2023-12-08T06:21:13.385Z,4.23
2023-12-08T06:26:44.668Z,4.03
2023-12-08T06:32:16.355Z,4.27
2023-12-08T06:37:48.069Z,4.26
2023-12-08T06:43:20.793Z,4.25
2023-12-08T06:48:51.622Z,4.23
2023-12-08T06:54:23.570Z,4.29
2023-12-08T07:05:26.918Z,4.48
2023-12-08T07:11:02.835Z,4.62
2023-12-08T07:16:35.431Z,4.62
2023-12-08T07:22:06.264Z,4.71
2023-12-08T07:27:38.103Z,4.71
2023-12-08T07:33:10.220Z,4.95
2023-12-08T07:38:41.713Z,4.99
2023-12-08T07:44:13.370Z,5.07
2023-12-08T07:49:45.033Z,5.1
2023-12-08T07:55:16.977Z,5.0
2023-12-08T08:00:48.554Z,5.07
2023-12-08T08:06:20.624Z,5.61
2023-12-08T08:11:58.257Z,5.67
2023-12-08T08:17:30.639Z,5.97
2023-12-08T08:23:01.649Z,6.14
2023-12-08T08:28:33.374Z,5.73
2023-12-08T08:34:05.207Z,5.89
2023-12-08T08:39:37.044Z,6.0
2023-12-08T08:45:08.571Z,5.87
2023-12-08T08:50:43.835Z,5.96
2023-12-08T08:56:11.992Z,5.86
2023-12-08T09:01:43.697Z,5.93
2023-12-08T09:07:15.583Z,5.82
2023-12-08T09:12:54.496Z,5.9
2023-12-08T09:18:25.738Z,5.82
2023-12-08T09:23:58.470Z,5.95
2023-12-08T09:29:29.102Z,6.02
2023-12-08T09:35:01.517Z,6.04
2023-12-08T09:40:32.802Z,6.11
2023-12-08T09:46:04.002Z,6.34
2023-12-08T09:51:35.668Z,6.4
2023-12-08T09:57:07.592Z,6.62
2023-12-08T10:02:39.164Z,6.83
2023-12-08T10:08:10.980Z,7.09
2023-12-08T10:13:48.112Z,6.94
2023-12-08T10:19:18.930Z,7.31
2023-12-08T10:24:50.771Z,6.98
2023-12-08T10:30:22.849Z,7.06
2023-12-08T10:35:54.022Z,7.45
2023-12-08T10:41:25.731Z,7.59
2023-12-08T10:46:57.610Z,7.68
2023-12-08T10:52:29.343Z,7.72
2023-12-08T10:58:00.857Z,7.67
2023-12-08T11:03:32.898Z,7.61
2023-12-08T11:09:04.344Z,7.57
2023-12-08T11:14:40.480Z,7.48
2023-12-08T11:20:12.181Z,7.54
2023-12-08T11:25:43.897Z,7.68
2023-12-08T11:31:15.762Z,7.85
2023-12-08T11:36:48.089Z,7.76
2023-12-08T11:42:19.100Z,7.89
2023-12-08T11:47:50.876Z,8.01
2023-12-08T11:53:22.577Z,8.15
2023-12-08T11:58:54.286Z,8.17
2023-12-08T12:04:26.010Z,8.24
2023-12-08T12:09:59.046Z,8.46
2023-12-08T12:15:33.842Z,8.69
2023-12-08T12:21:05.832Z,8.71
2023-12-08T12:26:37.634Z,8.89
2023-12-08T12:32:09.224Z,8.75
2023-12-08T12:37:40.729Z,8.78
2023-12-08T12:43:12.662Z,8.97
2023-12-08T12:48:44.275Z,9.35
2023-12-08T12:54:16.248Z,9.36
2023-12-08T12:59:47.670Z,9.34
2023-12-08T13:05:19.622Z,9.36
2023-12-08T13:10:51.383Z,9.5
2023-12-08T13:16:27.491Z,9.35
2023-12-08T13:21:59.005Z,9.28
2023-12-08T13:27:30.993Z,9.21
2023-12-08T13:33:04.554Z,9.06
2023-12-08T13:38:34.626Z,9.29
2023-12-08T13:44:06.085Z,9.39
2023-12-08T13:49:37.704Z,9.32
2023-12-08T13:55:09.858Z,9.22
2023-12-08T14:00:41.486Z,9.23
2023-12-08T14:06:12.950Z,9.4
2023-12-08T14:11:44.515Z,9.15
2023-12-08T14:17:20.659Z,9.2
2023-12-08T14:22:52.472Z,9.14
2023-12-08T14:28:24.148Z,9.09
2023-12-08T14:33:57.220Z,9.12
2023-12-08T14:39:29.461Z,9.19
2023-12-08T14:44:59.324Z,8.97
2023-12-08T14:50:31.277Z,8.98
2023-12-08T14:56:02.921Z,9.04
2023-12-08T15:01:34.508Z,8.9
2023-12-08T15:07:06.219Z,8.97
2023-12-08T15:12:37.994Z,9.06
2023-12-08T15:18:14.318Z,9.05
2023-12-08T15:23:45.809Z,9.05
2023-12-08T15:29:17.527Z,8.83
2023-12-08T15:34:49.558Z,8.98
2023-12-08T15:40:20.959Z,9.0
2023-12-08T15:45:52.870Z,8.97
2023-12-08T15:51:24.516Z,9.04
2023-12-08T15:56:56.575Z,8.94
2023-12-08T16:02:28.182Z,8.98
2023-12-08T16:07:59.581Z,8.95
2023-12-08T16:13:31.550Z,8.95
2023-12-08T16:19:07.573Z,8.93
2023-12-08T16:24:40.155Z,8.94
2023-12-08T16:30:11.120Z,8.9
2023-12-08T16:35:42.920Z,8.95
2023-12-08T16:41:14.578Z,8.53
2023-12-08T16:46:46.704Z,8.59
2023-12-08T16:52:18.018Z,8.79
2023-12-08T16:57:49.577Z,8.67
2023-12-08T17:03:21.446Z,8.82
2023-12-08T17:08:53.086Z,8.84
2023-12-08T17:14:24.799Z,8.91
2023-12-08T17:20:03.198Z,8.95
2023-12-08T17:25:34.633Z,8.96
2023-12-08T17:31:06.342Z,8.93
2023-12-08T17:36:38.233Z,8.95
2023-12-08T17:42:09.988Z,8.9
2023-12-08T17:47:41.547Z,8.99
2023-12-08T17:53:13.288Z,8.92
2023-12-08T17:58:44.981Z,8.96
2023-12-08T18:04:16.903Z,8.97
2023-12-08T18:09:48.441Z,8.99
2023-12-08T18:15:20.379Z,8.9
2023-12-08T18:20:59.141Z,8.9
2023-12-08T18:26:30.243Z,8.85
2023-12-08T18:32:01.907Z,8.98
2023-12-08T18:37:33.553Z,8.98
2023-12-08T18:43:05.576Z,9.01
2023-12-08T18:48:37.215Z,8.91
2023-12-08T18:54:08.752Z,8.95
2023-12-08T18:59:40.510Z,8.93
2023-12-08T19:05:12.401Z,8.93
2023-12-08T19:10:44.855Z,8.8
2023-12-08T19:16:16.376Z,8.85
2023-12-08T19:21:52.497Z,8.71
2023-12-08T19:27:24.570Z,8.93
2023-12-08T19:32:56.345Z,8.77
2023-12-08T19:38:27.983Z,8.73
2023-12-08T19:43:59.771Z,8.81
2023-12-08T19:49:31.368Z,8.87
2023-12-08T19:55:02.998Z,8.49
2023-12-08T20:00:34.796Z,8.64
2023-12-08T20:06:06.521Z,8.61
2023-12-08T20:11:38.185Z,8.18
2023-12-08T20:17:10.460Z,8.39
2023-12-08T20:22:45.967Z,8.46
2023-12-08T20:28:17.883Z,8.54
2023-12-08T20:33:49.563Z,8.66
2023-12-08T20:39:21.265Z,8.68
2023-12-08T20:44:52.988Z,8.59
2023-12-08T20:50:24.677Z,8.64
2023-12-08T20:55:56.471Z,8.72
2023-12-08T21:01:28.762Z,8.68
2023-12-08T21:07:00.234Z,8.72
2023-12-08T21:12:32.721Z,8.76
2023-12-08T21:18:03.395Z,8.82
2023-12-08T21:23:39.466Z,8.82
2023-12-08T21:29:11.210Z,8.68
2023-12-08T21:34:43.501Z,8.81
2023-12-08T21:40:14.879Z,8.79
2023-12-08T21:45:46.541Z,8.79
2023-12-08T21:51:18.224Z,8.82
2023-12-08T21:56:50.212Z,8.8
2023-12-08T22:02:21.833Z,8.75
2023-12-08T22:07:54.183Z,8.66
2023-12-08T22:13:25.118Z,8.71
2023-12-08T22:18:57.101Z,8.77
2023-12-08T22:24:58.125Z,8.77
2023-12-08T22:30:29.714Z,8.79
2023-12-08T22:36:01.398Z,8.79
2023-12-08T22:41:33.182Z,8.73
2023-12-08T22:47:04.902Z,8.8
2023-12-08T22:52:36.786Z,8.86
2023-12-08T22:58:08.614Z,8.89
2023-12-08T23:03:40.210Z,8.88
2023-12-08T23:09:11.821Z,8.86
2023-12-08T23:14:43.530Z,8.88
2023-12-08T23:20:15.292Z,8.92
2023-12-08T23:25:53.549Z,8.94
2023-12-08T23:31:25.299Z,8.96
2023-12-08T23:36:57.487Z,8.83
2023-12-08T23:42:28.848Z,8.9
2023-12-08T23:48:00.414Z,8.81
2023-12-08T23:53:32.165Z,8.92
2023-12-08T23:59:04.305Z,8.9
